sensor_id;sensor_type;location;lat;lon;timestamp;P1;durP1;ratioP1;P2;durP2;ratioP2
25237;SDS011;13185;50.872;5.306;2024-03-25T00:02:01;10.80;;;3.30;;
25237;SDS011;13185;50.872;5.306;2024-03-25T00:04:27;7.68;;;2.95;;
25237;SDS011;13185;50.872;5.306;2024-03-25T00:06:52;7.97;;;2.92;;
25237;SDS011;13185;50.872;5.306;2024-03-25T00:09:18;9.48;;;3.42;;
25237;SDS011;13185;50.872;5.306;2024-03-25T00:11:45;7.90;;;3.47;;
25237;SDS011;13185;50.872;5.306;2024-03-25T00:14:11;10.93;;;2.88;;
25237;SDS011;13185;50.872;5.306;2024-03-25T00:16:37;13.10;;;3.55;;
25237;SDS011;13185;50.872;5.306;2024-03-25T00:19:02;10.98;;;3.63;;
25237;SDS011;13185;50.872;5.306;2024-03-25T00:21:28;10.35;;;3.58;;
25237;SDS011;13185;50.872;5.306;2024-03-25T00:23:54;11.05;;;2.65;;
25237;SDS011;13185;50.872;5.306;2024-03-25T00:26:22;10.70;;;3.60;;
25237;SDS011;13185;50.872;5.306;2024-03-25T00:28:50;8.23;;;2.92;;
25237;SDS011;13185;50.872;5.306;2024-03-25T00:31:16;9.50;;;2.87;;
25237;SDS011;13185;50.872;5.306;2024-03-25T00:33:41;9.75;;;3.22;;
25237;SDS011;13185;50.872;5.306;2024-03-25T00:36:07;10.13;;;2.53;;
25237;SDS011;13185;50.872;5.306;2024-03-25T00:38:32;8.63;;;2.63;;
25237;SDS011;13185;50.872;5.306;2024-03-25T00:40:58;9.27;;;3.20;;
25237;SDS011;13185;50.872;5.306;2024-03-25T00:43:24;9.17;;;2.43;;
25237;SDS011;13185;50.872;5.306;2024-03-25T00:45:49;9.23;;;3.20;;
25237;SDS011;13185;50.872;5.306;2024-03-25T00:48:15;5.70;;;2.70;;
25237;SDS011;13185;50.872;5.306;2024-03-25T00:50:40;10.37;;;3.73;;
25237;SDS011;13185;50.872;5.306;2024-03-25T00:53:06;9.30;;;3.35;;
25237;SDS011;13185;50.872;5.306;2024-03-25T00:55:33;7.05;;;2.65;;
25237;SDS011;13185;50.872;5.306;2024-03-25T00:57:59;5.47;;;2.92;;
25237;SDS011;13185;50.872;5.306;2024-03-25T01:00:26;9.37;;;2.70;;
25237;SDS011;13185;50.872;5.306;2024-03-25T01:02:52;8.07;;;2.90;;
25237;SDS011;13185;50.872;5.306;2024-03-25T01:05:17;9.15;;;3.20;;
25237;SDS011;13185;50.872;5.306;2024-03-25T01:07:43;5.67;;;3.00;;
25237;SDS011;13185;50.872;5.306;2024-03-25T01:10:09;6.40;;;3.30;;
25237;SDS011;13185;50.872;5.306;2024-03-25T01:12:35;9.20;;;3.20;;
25237;SDS011;13185;50.872;5.306;2024-03-25T01:15:00;7.50;;;3.20;;
25237;SDS011;13185;50.872;5.306;2024-03-25T01:17:28;7.13;;;2.97;;
25237;SDS011;13185;50.872;5.306;2024-03-25T01:19:53;6.70;;;2.83;;
25237;SDS011;13185;50.872;5.306;2024-03-25T01:22:19;11.27;;;3.70;;
25237;SDS011;13185;50.872;5.306;2024-03-25T01:24:44;7.50;;;2.70;;
25237;SDS011;13185;50.872;5.306;2024-03-25T01:27:10;5.60;;;2.70;;
25237;SDS011;13185;50.872;5.306;2024-03-25T01:29:36;7.77;;;2.80;;
25237;SDS011;13185;50.872;5.306;2024-03-25T01:32:02;8.77;;;2.40;;
25237;SDS011;13185;50.872;5.306;2024-03-25T01:34:29;5.07;;;2.90;;
25237;SDS011;13185;50.872;5.306;2024-03-25T01:36:55;3.90;;;2.33;;
25237;SDS011;13185;50.872;5.306;2024-03-25T01:39:20;5.28;;;2.90;;
25237;SDS011;13185;50.872;5.306;2024-03-25T01:41:46;7.63;;;2.70;;
25237;SDS011;13185;50.872;5.306;2024-03-25T01:44:11;4.63;;;2.70;;
25237;SDS011;13185;50.872;5.306;2024-03-25T01:46:38;7.10;;;2.47;;
25237;SDS011;13185;50.872;5.306;2024-03-25T01:49:04;5.70;;;1.93;;
25237;SDS011;13185;50.872;5.306;2024-03-25T01:51:31;6.73;;;2.40;;
25237;SDS011;13185;50.872;5.306;2024-03-25T01:53:57;4.20;;;2.20;;
25237;SDS011;13185;50.872;5.306;2024-03-25T01:56:24;11.30;;;2.60;;
25237;SDS011;13185;50.872;5.306;2024-03-25T01:58:50;4.72;;;2.33;;
25237;SDS011;13185;50.872;5.306;2024-03-25T02:01:16;6.77;;;2.37;;
25237;SDS011;13185;50.872;5.306;2024-03-25T02:03:43;4.20;;;2.20;;
25237;SDS011;13185;50.872;5.306;2024-03-25T02:06:12;6.93;;;2.10;;
25237;SDS011;13185;50.872;5.306;2024-03-25T02:08:41;4.90;;;2.13;;
25237;SDS011;13185;50.872;5.306;2024-03-25T02:11:08;4.57;;;2.10;;
25237;SDS011;13185;50.872;5.306;2024-03-25T02:13:35;5.87;;;2.43;;
25237;SDS011;13185;50.872;5.306;2024-03-25T02:16:02;4.40;;;2.37;;
25237;SDS011;13185;50.872;5.306;2024-03-25T02:18:28;5.27;;;2.37;;
25237;SDS011;13185;50.872;5.306;2024-03-25T02:20:54;5.20;;;1.87;;
25237;SDS011;13185;50.872;5.306;2024-03-25T02:23:19;4.80;;;2.40;;
25237;SDS011;13185;50.872;5.306;2024-03-25T02:25:51;7.13;;;1.93;;
25237;SDS011;13185;50.872;5.306;2024-03-25T02:28:17;4.25;;;1.90;;
25237;SDS011;13185;50.872;5.306;2024-03-25T02:30:43;3.97;;;1.87;;
25237;SDS011;13185;50.872;5.306;2024-03-25T02:33:08;5.23;;;1.93;;
25237;SDS011;13185;50.872;5.306;2024-03-25T02:35:34;5.23;;;2.20;;
25237;SDS011;13185;50.872;5.306;2024-03-25T02:38:00;4.80;;;2.63;;
25237;SDS011;13185;50.872;5.306;2024-03-25T02:40:26;4.67;;;1.80;;
25237;SDS011;13185;50.872;5.306;2024-03-25T02:42:52;6.67;;;1.57;;
25237;SDS011;13185;50.872;5.306;2024-03-25T02:45:18;6.50;;;2.50;;
25237;SDS011;13185;50.872;5.306;2024-03-25T02:47:45;6.97;;;2.23;;
25237;SDS011;13185;50.872;5.306;2024-03-25T02:50:11;4.23;;;2.13;;
25237;SDS011;13185;50.872;5.306;2024-03-25T02:52:37;4.37;;;1.90;;
25237;SDS011;13185;50.872;5.306;2024-03-25T02:55:02;4.03;;;2.17;;
25237;SDS011;13185;50.872;5.306;2024-03-25T02:57:28;3.83;;;1.90;;
25237;SDS011;13185;50.872;5.306;2024-03-25T02:59:54;4.97;;;2.50;;
25237;SDS011;13185;50.872;5.306;2024-03-25T03:02:19;2.87;;;1.90;;
25237;SDS011;13185;50.872;5.306;2024-03-25T03:04:45;4.50;;;2.23;;
25237;SDS011;13185;50.872;5.306;2024-03-25T03:07:10;9.00;;;2.30;;
25237;SDS011;13185;50.872;5.306;2024-03-25T03:09:36;5.60;;;2.17;;
25237;SDS011;13185;50.872;5.306;2024-03-25T03:12:03;6.43;;;2.30;;
25237;SDS011;13185;50.872;5.306;2024-03-25T03:14:28;9.00;;;2.37;;
25237;SDS011;13185;50.872;5.306;2024-03-25T03:16:54;4.57;;;2.10;;
25237;SDS011;13185;50.872;5.306;2024-03-25T03:19:24;6.00;;;2.10;;
25237;SDS011;13185;50.872;5.306;2024-03-25T03:21:52;5.47;;;2.00;;
25237;SDS011;13185;50.872;5.306;2024-03-25T03:24:17;6.53;;;2.97;;
25237;SDS011;13185;50.872;5.306;2024-03-25T03:26:43;3.10;;;2.00;;
25237;SDS011;13185;50.872;5.306;2024-03-25T03:29:09;3.73;;;1.90;;
25237;SDS011;13185;50.872;5.306;2024-03-25T03:31:35;7.40;;;2.07;;
25237;SDS011;13185;50.872;5.306;2024-03-25T03:34:01;4.00;;;1.77;;
25237;SDS011;13185;50.872;5.306;2024-03-25T03:36:26;4.90;;;2.00;;
25237;SDS011;13185;50.872;5.306;2024-03-25T03:38:52;7.47;;;2.20;;
25237;SDS011;13185;50.872;5.306;2024-03-25T03:41:17;9.70;;;2.80;;
25237;SDS011;13185;50.872;5.306;2024-03-25T03:43:43;6.07;;;2.33;;
25237;SDS011;13185;50.872;5.306;2024-03-25T03:46:09;6.07;;;2.60;;
25237;SDS011;13185;50.872;5.306;2024-03-25T03:48:34;7.03;;;2.57;;
25237;SDS011;13185;50.872;5.306;2024-03-25T03:51:00;5.60;;;2.33;;
25237;SDS011;13185;50.872;5.306;2024-03-25T03:53:26;4.27;;;2.47;;
25237;SDS011;13185;50.872;5.306;2024-03-25T03:55:58;5.10;;;2.67;;
25237;SDS011;13185;50.872;5.306;2024-03-25T03:58:27;4.20;;;2.13;;
25237;SDS011;13185;50.872;5.306;2024-03-25T04:00:52;5.80;;;2.03;;
25237;SDS011;13185;50.872;5.306;2024-03-25T04:03:18;5.60;;;2.23;;
25237;SDS011;13185;50.872;5.306;2024-03-25T04:05:44;7.10;;;2.33;;
25237;SDS011;13185;50.872;5.306;2024-03-25T04:08:10;3.40;;;2.20;;
25237;SDS011;13185;50.872;5.306;2024-03-25T04:10:36;5.50;;;2.40;;
25237;SDS011;13185;50.872;5.306;2024-03-25T04:13:03;6.47;;;2.57;;
25237;SDS011;13185;50.872;5.306;2024-03-25T04:15:29;5.80;;;2.80;;
25237;SDS011;13185;50.872;5.306;2024-03-25T04:17:58;6.13;;;2.93;;
25237;SDS011;13185;50.872;5.306;2024-03-25T04:20:23;4.67;;;2.70;;
25237;SDS011;13185;50.872;5.306;2024-03-25T04:22:49;10.10;;;3.43;;
25237;SDS011;13185;50.872;5.306;2024-03-25T04:25:14;5.03;;;2.80;;
25237;SDS011;13185;50.872;5.306;2024-03-25T04:27:40;10.17;;;3.10;;
25237;SDS011;13185;50.872;5.306;2024-03-25T04:30:09;6.63;;;3.10;;
25237;SDS011;13185;50.872;5.306;2024-03-25T04:32:36;4.40;;;2.60;;
25237;SDS011;13185;50.872;5.306;2024-03-25T04:35:03;4.20;;;2.70;;
25237;SDS011;13185;50.872;5.306;2024-03-25T04:37:29;7.23;;;3.07;;
25237;SDS011;13185;50.872;5.306;2024-03-25T04:39:55;7.93;;;3.30;;
25237;SDS011;13185;50.872;5.306;2024-03-25T04:42:21;8.40;;;3.50;;
25237;SDS011;13185;50.872;5.306;2024-03-25T04:44:47;8.67;;;3.60;;
25237;SDS011;13185;50.872;5.306;2024-03-25T04:47:14;8.43;;;4.20;;
25237;SDS011;13185;50.872;5.306;2024-03-25T04:49:40;10.27;;;4.70;;
25237;SDS011;13185;50.872;5.306;2024-03-25T04:52:06;13.23;;;5.00;;
25237;SDS011;13185;50.872;5.306;2024-03-25T04:54:32;15.37;;;6.60;;
25237;SDS011;13185;50.872;5.306;2024-03-25T04:56:57;17.17;;;7.07;;
25237;SDS011;13185;50.872;5.306;2024-03-25T04:59:23;18.10;;;6.70;;
25237;SDS011;13185;50.872;5.306;2024-03-25T05:01:49;13.73;;;6.50;;
25237;SDS011;13185;50.872;5.306;2024-03-25T05:04:14;18.77;;;7.63;;
25237;SDS011;13185;50.872;5.306;2024-03-25T05:06:40;19.83;;;7.30;;
25237;SDS011;13185;50.872;5.306;2024-03-25T05:09:05;17.83;;;7.47;;
25237;SDS011;13185;50.872;5.306;2024-03-25T05:11:32;18.03;;;7.63;;
25237;SDS011;13185;50.872;5.306;2024-03-25T05:13:57;14.27;;;6.47;;
25237;SDS011;13185;50.872;5.306;2024-03-25T05:16:23;14.00;;;7.07;;
25237;SDS011;13185;50.872;5.306;2024-03-25T05:18:49;14.73;;;6.93;;
25237;SDS011;13185;50.872;5.306;2024-03-25T05:21:14;16.80;;;7.10;;
25237;SDS011;13185;50.872;5.306;2024-03-25T05:23:40;16.83;;;7.40;;
25237;SDS011;13185;50.872;5.306;2024-03-25T05:26:06;18.53;;;7.30;;
25237;SDS011;13185;50.872;5.306;2024-03-25T05:28:32;15.70;;;7.80;;
25237;SDS011;13185;50.872;5.306;2024-03-25T05:31:04;15.27;;;6.63;;
25237;SDS011;13185;50.872;5.306;2024-03-25T05:33:31;17.13;;;7.10;;
25237;SDS011;13185;50.872;5.306;2024-03-25T05:35:58;18.83;;;7.37;;
25237;SDS011;13185;50.872;5.306;2024-03-25T05:38:24;15.43;;;5.83;;
25237;SDS011;13185;50.872;5.306;2024-03-25T05:40:49;19.63;;;6.93;;
25237;SDS011;13185;50.872;5.306;2024-03-25T05:43:15;17.73;;;6.60;;
25237;SDS011;13185;50.872;5.306;2024-03-25T05:45:40;10.70;;;5.50;;
25237;SDS011;13185;50.872;5.306;2024-03-25T05:48:06;13.17;;;5.80;;
25237;SDS011;13185;50.872;5.306;2024-03-25T05:50:31;15.50;;;6.90;;
25237;SDS011;13185;50.872;5.306;2024-03-25T05:52:57;15.27;;;6.37;;
25237;SDS011;13185;50.872;5.306;2024-03-25T05:55:22;16.67;;;6.13;;
25237;SDS011;13185;50.872;5.306;2024-03-25T05:57:48;20.00;;;7.00;;
25237;SDS011;13185;50.872;5.306;2024-03-25T06:00:13;15.73;;;6.03;;
25237;SDS011;13185;50.872;5.306;2024-03-25T06:02:39;15.37;;;6.43;;
25237;SDS011;13185;50.872;5.306;2024-03-25T06:05:05;10.30;;;5.50;;
25237;SDS011;13185;50.872;5.306;2024-03-25T06:07:30;13.60;;;5.73;;
25237;SDS011;13185;50.872;5.306;2024-03-25T06:09:56;13.03;;;5.73;;
25237;SDS011;13185;50.872;5.306;2024-03-25T06:12:21;14.87;;;6.53;;
25237;SDS011;13185;50.872;5.306;2024-03-25T06:14:47;14.60;;;6.30;;
25237;SDS011;13185;50.872;5.306;2024-03-25T06:17:12;18.67;;;6.67;;
25237;SDS011;13185;50.872;5.306;2024-03-25T06:19:38;11.67;;;5.93;;
25237;SDS011;13185;50.872;5.306;2024-03-25T06:22:03;14.00;;;6.03;;
25237;SDS011;13185;50.872;5.306;2024-03-25T06:24:29;18.57;;;6.10;;
25237;SDS011;13185;50.872;5.306;2024-03-25T06:26:54;13.97;;;6.37;;
25237;SDS011;13185;50.872;5.306;2024-03-25T06:29:20;18.03;;;6.73;;
25237;SDS011;13185;50.872;5.306;2024-03-25T06:31:47;15.13;;;6.70;;
25237;SDS011;13185;50.872;5.306;2024-03-25T06:34:31;20.03;;;6.53;;
25237;SDS011;13185;50.872;5.306;2024-03-25T06:36:56;17.53;;;6.70;;
25237;SDS011;13185;50.872;5.306;2024-03-25T06:39:22;11.87;;;6.27;;
25237;SDS011;13185;50.872;5.306;2024-03-25T06:41:47;10.77;;;6.13;;
25237;SDS011;13185;50.872;5.306;2024-03-25T06:44:13;17.63;;;6.00;;
25237;SDS011;13185;50.872;5.306;2024-03-25T06:46:38;15.43;;;7.00;;
25237;SDS011;13185;50.872;5.306;2024-03-25T06:49:04;15.47;;;5.67;;
25237;SDS011;13185;50.872;5.306;2024-03-25T06:51:29;13.37;;;6.00;;
25237;SDS011;13185;50.872;5.306;2024-03-25T06:53:55;15.33;;;6.17;;
25237;SDS011;13185;50.872;5.306;2024-03-25T06:56:21;15.10;;;5.95;;
25237;SDS011;13185;50.872;5.306;2024-03-25T06:58:46;16.10;;;5.72;;
25237;SDS011;13185;50.872;5.306;2024-03-25T07:01:12;16.45;;;6.32;;
25237;SDS011;13185;50.872;5.306;2024-03-25T07:03:37;12.65;;;6.15;;
25237;SDS011;13185;50.872;5.306;2024-03-25T07:06:04;16.25;;;5.63;;
25237;SDS011;13185;50.872;5.306;2024-03-25T07:08:30;11.60;;;5.43;;
25237;SDS011;13185;50.872;5.306;2024-03-25T07:10:56;12.10;;;5.20;;
25237;SDS011;13185;50.872;5.306;2024-03-25T07:13:22;16.33;;;6.88;;
25237;SDS011;13185;50.872;5.306;2024-03-25T07:15:48;12.02;;;5.82;;
25237;SDS011;13185;50.872;5.306;2024-03-25T07:18:14;15.93;;;5.63;;
25237;SDS011;13185;50.872;5.306;2024-03-25T07:20:40;14.07;;;6.20;;
25237;SDS011;13185;50.872;5.306;2024-03-25T07:23:06;15.18;;;6.25;;
25237;SDS011;13185;50.872;5.306;2024-03-25T07:25:31;14.80;;;5.95;;
25237;SDS011;13185;50.872;5.306;2024-03-25T07:27:57;14.80;;;5.82;;
25237;SDS011;13185;50.872;5.306;2024-03-25T07:30:23;17.83;;;6.45;;
25237;SDS011;13185;50.872;5.306;2024-03-25T07:32:58;12.70;;;6.22;;
25237;SDS011;13185;50.872;5.306;2024-03-25T07:35:24;16.83;;;6.43;;
25237;SDS011;13185;50.872;5.306;2024-03-25T07:37:50;13.50;;;5.65;;
25237;SDS011;13185;50.872;5.306;2024-03-25T07:40:17;14.40;;;6.13;;
25237;SDS011;13185;50.872;5.306;2024-03-25T07:42:46;18.65;;;6.72;;
25237;SDS011;13185;50.872;5.306;2024-03-25T07:45:11;14.25;;;6.50;;
25237;SDS011;13185;50.872;5.306;2024-03-25T07:47:37;16.50;;;6.05;;
25237;SDS011;13185;50.872;5.306;2024-03-25T07:50:02;13.07;;;6.45;;
25237;SDS011;13185;50.872;5.306;2024-03-25T07:52:28;15.43;;;6.32;;
25237;SDS011;13185;50.872;5.306;2024-03-25T07:54:54;12.38;;;5.70;;
25237;SDS011;13185;50.872;5.306;2024-03-25T07:57:20;16.08;;;6.40;;
25237;SDS011;13185;50.872;5.306;2024-03-25T07:59:46;13.65;;;5.90;;
25237;SDS011;13185;50.872;5.306;2024-03-25T08:02:11;13.93;;;6.15;;
25237;SDS011;13185;50.872;5.306;2024-03-25T08:04:37;9.40;;;5.68;;
25237;SDS011;13185;50.872;5.306;2024-03-25T08:07:03;13.68;;;5.68;;
25237;SDS011;13185;50.872;5.306;2024-03-25T08:09:28;19.23;;;5.97;;
25237;SDS011;13185;50.872;5.306;2024-03-25T08:11:54;10.27;;;6.00;;
25237;SDS011;13185;50.872;5.306;2024-03-25T08:14:20;15.90;;;6.63;;
25237;SDS011;13185;50.872;5.306;2024-03-25T08:16:47;10.85;;;5.43;;
25237;SDS011;13185;50.872;5.306;2024-03-25T08:19:13;13.77;;;6.03;;
25237;SDS011;13185;50.872;5.306;2024-03-25T08:21:38;11.65;;;5.60;;
25237;SDS011;13185;50.872;5.306;2024-03-25T08:24:04;14.07;;;5.50;;
25237;SDS011;13185;50.872;5.306;2024-03-25T08:26:29;13.35;;;5.90;;
25237;SDS011;13185;50.872;5.306;2024-03-25T08:28:55;12.80;;;5.75;;
25237;SDS011;13185;50.872;5.306;2024-03-25T08:31:21;11.00;;;5.63;;
25237;SDS011;13185;50.872;5.306;2024-03-25T08:33:46;8.75;;;4.30;;
25237;SDS011;13185;50.872;5.306;2024-03-25T08:36:12;13.30;;;4.97;;
25237;SDS011;13185;50.872;5.306;2024-03-25T08:38:37;14.35;;;5.18;;
25237;SDS011;13185;50.872;5.306;2024-03-25T08:41:03;13.23;;;4.97;;
25237;SDS011;13185;50.872;5.306;2024-03-25T08:43:29;8.70;;;4.25;;
25237;SDS011;13185;50.872;5.306;2024-03-25T08:45:55;10.85;;;4.68;;
25237;SDS011;13185;50.872;5.306;2024-03-25T08:48:20;11.35;;;4.35;;
25237;SDS011;13185;50.872;5.306;2024-03-25T08:50:46;10.82;;;4.93;;
25237;SDS011;13185;50.872;5.306;2024-03-25T08:53:12;9.65;;;4.05;;
25237;SDS011;13185;50.872;5.306;2024-03-25T08:55:37;11.02;;;4.60;;
25237;SDS011;13185;50.872;5.306;2024-03-25T08:58:03;9.25;;;4.82;;
25237;SDS011;13185;50.872;5.306;2024-03-25T09:00:28;12.75;;;4.75;;
25237;SDS011;13185;50.872;5.306;2024-03-25T09:02:54;7.95;;;4.15;;
25237;SDS011;13185;50.872;5.306;2024-03-25T09:05:20;12.57;;;4.32;;
25237;SDS011;13185;50.872;5.306;2024-03-25T09:07:49;13.32;;;4.35;;
25237;SDS011;13185;50.872;5.306;2024-03-25T09:10:16;10.65;;;4.55;;
25237;SDS011;13185;50.872;5.306;2024-03-25T09:13:21;10.13;;;3.83;;
25237;SDS011;13185;50.872;5.306;2024-03-25T09:15:48;12.43;;;4.40;;
25237;SDS011;13185;50.872;5.306;2024-03-25T09:18:14;8.73;;;4.03;;
25237;SDS011;13185;50.872;5.306;2024-03-25T09:20:39;7.38;;;4.20;;
25237;SDS011;13185;50.872;5.306;2024-03-25T09:23:05;12.10;;;4.35;;
25237;SDS011;13185;50.872;5.306;2024-03-25T09:25:30;15.93;;;4.78;;
25237;SDS011;13185;50.872;5.306;2024-03-25T09:27:56;16.65;;;4.40;;
25237;SDS011;13185;50.872;5.306;2024-03-25T09:30:21;9.98;;;4.70;;
25237;SDS011;13185;50.872;5.306;2024-03-25T09:32:47;7.28;;;4.20;;
25237;SDS011;13185;50.872;5.306;2024-03-25T09:35:13;9.68;;;3.95;;
25237;SDS011;13185;50.872;5.306;2024-03-25T09:37:38;12.82;;;4.03;;
25237;SDS011;13185;50.872;5.306;2024-03-25T09:40:04;11.73;;;4.05;;
25237;SDS011;13185;50.872;5.306;2024-03-25T09:42:34;13.27;;;4.85;;
25237;SDS011;13185;50.872;5.306;2024-03-25T09:45:12;6.30;;;3.67;;
25237;SDS011;13185;50.872;5.306;2024-03-25T09:47:40;10.05;;;4.07;;
25237;SDS011;13185;50.872;5.306;2024-03-25T09:50:10;10.90;;;5.03;;
25237;SDS011;13185;50.872;5.306;2024-03-25T09:52:37;8.55;;;4.47;;
25237;SDS011;13185;50.872;5.306;2024-03-25T09:55:03;9.57;;;5.03;;
25237;SDS011;13185;50.872;5.306;2024-03-25T09:57:28;11.55;;;5.90;;
25237;SDS011;13185;50.872;5.306;2024-03-25T09:59:55;8.52;;;4.10;;
25237;SDS011;13185;50.872;5.306;2024-03-25T10:02:21;8.55;;;4.63;;
25237;SDS011;13185;50.872;5.306;2024-03-25T10:04:51;9.27;;;4.65;;
25237;SDS011;13185;50.872;5.306;2024-03-25T10:07:23;9.70;;;5.28;;
25237;SDS011;13185;50.872;5.306;2024-03-25T10:09:52;9.40;;;4.13;;
25237;SDS011;13185;50.872;5.306;2024-03-25T10:12:17;8.75;;;5.22;;
25237;SDS011;13185;50.872;5.306;2024-03-25T10:14:43;9.27;;;4.95;;
25237;SDS011;13185;50.872;5.306;2024-03-25T10:17:09;9.45;;;4.15;;
25237;SDS011;13185;50.872;5.306;2024-03-25T10:19:35;9.50;;;4.05;;
25237;SDS011;13185;50.872;5.306;2024-03-25T10:22:04;8.35;;;3.95;;
25237;SDS011;13185;50.872;5.306;2024-03-25T10:24:38;10.40;;;3.65;;
25237;SDS011;13185;50.872;5.306;2024-03-25T10:27:20;9.45;;;3.67;;
25237;SDS011;13185;50.872;5.306;2024-03-25T10:29:47;8.48;;;4.28;;
25237;SDS011;13185;50.872;5.306;2024-03-25T10:32:14;7.68;;;3.20;;
25237;SDS011;13185;50.872;5.306;2024-03-25T10:34:40;7.80;;;3.58;;
25237;SDS011;13185;50.872;5.306;2024-03-25T10:37:08;9.80;;;3.33;;
25237;SDS011;13185;50.872;5.306;2024-03-25T10:39:38;7.35;;;3.25;;
25237;SDS011;13185;50.872;5.306;2024-03-25T10:42:05;6.60;;;2.95;;
25237;SDS011;13185;50.872;5.306;2024-03-25T10:44:31;6.75;;;2.75;;
25237;SDS011;13185;50.872;5.306;2024-03-25T10:46:59;8.15;;;3.45;;
25237;SDS011;13185;50.872;5.306;2024-03-25T10:49:34;5.60;;;3.50;;
25237;SDS011;13185;50.872;5.306;2024-03-25T10:52:04;5.45;;;2.88;;
25237;SDS011;13185;50.872;5.306;2024-03-25T10:54:31;8.70;;;3.30;;
25237;SDS011;13185;50.872;5.306;2024-03-25T10:56:57;7.82;;;3.03;;
25237;SDS011;13185;50.872;5.306;2024-03-25T10:59:24;6.18;;;2.97;;
25237;SDS011;13185;50.872;5.306;2024-03-25T11:01:51;5.07;;;3.13;;
25237;SDS011;13185;50.872;5.306;2024-03-25T11:04:18;4.93;;;2.60;;
25237;SDS011;13185;50.872;5.306;2024-03-25T11:06:44;7.60;;;2.90;;
25237;SDS011;13185;50.872;5.306;2024-03-25T11:09:10;5.13;;;3.00;;
25237;SDS011;13185;50.872;5.306;2024-03-25T11:11:36;6.78;;;2.50;;
25237;SDS011;13185;50.872;5.306;2024-03-25T11:14:14;5.20;;;2.42;;
25237;SDS011;13185;50.872;5.306;2024-03-25T11:16:41;5.63;;;2.22;;
25237;SDS011;13185;50.872;5.306;2024-03-25T11:19:06;5.57;;;1.70;;
25237;SDS011;13185;50.872;5.306;2024-03-25T11:21:36;3.47;;;1.50;;
25237;SDS011;13185;50.872;5.306;2024-03-25T11:24:08;6.00;;;1.73;;
25237;SDS011;13185;50.872;5.306;2024-03-25T11:26:34;5.70;;;2.00;;
25237;SDS011;13185;50.872;5.306;2024-03-25T11:29:01;7.95;;;1.95;;
25237;SDS011;13185;50.872;5.306;2024-03-25T11:31:26;5.05;;;2.15;;
25237;SDS011;13185;50.872;5.306;2024-03-25T11:33:55;5.32;;;2.13;;
25237;SDS011;13185;50.872;5.306;2024-03-25T11:36:22;3.92;;;2.00;;
25237;SDS011;13185;50.872;5.306;2024-03-25T11:39:03;6.78;;;1.95;;
25237;SDS011;13185;50.872;5.306;2024-03-25T11:41:34;7.35;;;1.58;;
25237;SDS011;13185;50.872;5.306;2024-03-25T11:44:01;4.97;;;1.45;;
25237;SDS011;13185;50.872;5.306;2024-03-25T11:46:26;4.30;;;1.25;;
25237;SDS011;13185;50.872;5.306;2024-03-25T11:48:52;3.72;;;1.17;;
25237;SDS011;13185;50.872;5.306;2024-03-25T11:51:19;3.42;;;1.45;;
25237;SDS011;13185;50.872;5.306;2024-03-25T11:53:44;4.75;;;1.20;;
25237;SDS011;13185;50.872;5.306;2024-03-25T11:56:13;3.47;;;1.20;;
25237;SDS011;13185;50.872;5.306;2024-03-25T11:58:40;5.53;;;1.60;;
25237;SDS011;13185;50.872;5.306;2024-03-25T12:01:05;1.42;;;1.08;;
25237;SDS011;13185;50.872;5.306;2024-03-25T12:03:34;2.40;;;1.02;;
25237;SDS011;13185;50.872;5.306;2024-03-25T12:05:59;5.18;;;1.30;;
25237;SDS011;13185;50.872;5.306;2024-03-25T12:08:26;4.18;;;1.10;;
25237;SDS011;13185;50.872;5.306;2024-03-25T12:10:53;3.10;;;1.13;;
25237;SDS011;13185;50.872;5.306;2024-03-25T12:13:40;6.72;;;1.23;;
25237;SDS011;13185;50.872;5.306;2024-03-25T12:16:07;2.58;;;1.02;;
25237;SDS011;13185;50.872;5.306;2024-03-25T12:18:33;3.08;;;1.10;;
25237;SDS011;13185;50.872;5.306;2024-03-25T12:21:01;2.78;;;1.42;;
25237;SDS011;13185;50.872;5.306;2024-03-25T12:23:29;3.72;;;1.08;;
25237;SDS011;13185;50.872;5.306;2024-03-25T12:25:55;6.45;;;1.60;;
25237;SDS011;13185;50.872;5.306;2024-03-25T12:28:21;5.03;;;1.30;;
25237;SDS011;13185;50.872;5.306;2024-03-25T12:30:51;5.75;;;1.80;;
25237;SDS011;13185;50.872;5.306;2024-03-25T12:33:17;3.28;;;0.93;;
25237;SDS011;13185;50.872;5.306;2024-03-25T12:35:46;3.33;;;0.73;;
25237;SDS011;13185;50.872;5.306;2024-03-25T12:38:25;5.97;;;1.42;;
25237;SDS011;13185;50.872;5.306;2024-03-25T12:40:51;4.00;;;1.60;;
25237;SDS011;13185;50.872;5.306;2024-03-25T12:43:18;4.25;;;1.00;;
25237;SDS011;13185;50.872;5.306;2024-03-25T12:45:43;4.32;;;1.63;;
25237;SDS011;13185;50.872;5.306;2024-03-25T12:48:09;3.03;;;1.00;;
25237;SDS011;13185;50.872;5.306;2024-03-25T12:50:35;2.42;;;0.90;;
25237;SDS011;13185;50.872;5.306;2024-03-25T12:53:02;3.30;;;0.95;;
25237;SDS011;13185;50.872;5.306;2024-03-25T12:55:31;2.42;;;0.93;;
25237;SDS011;13185;50.872;5.306;2024-03-25T12:57:56;3.38;;;1.10;;
25237;SDS011;13185;50.872;5.306;2024-03-25T13:00:21;2.70;;;1.17;;
25237;SDS011;13185;50.872;5.306;2024-03-25T13:02:48;9.85;;;0.88;;
25237;SDS011;13185;50.872;5.306;2024-03-25T13:05:14;3.53;;;1.10;;
25237;SDS011;13185;50.872;5.306;2024-03-25T13:07:39;4.15;;;1.10;;
25237;SDS011;13185;50.872;5.306;2024-03-25T13:10:05;2.70;;;0.88;;
25237;SDS011;13185;50.872;5.306;2024-03-25T13:12:31;3.80;;;1.15;;
25237;SDS011;13185;50.872;5.306;2024-03-25T13:14:56;2.97;;;1.10;;
25237;SDS011;13185;50.872;5.306;2024-03-25T13:17:24;3.83;;;1.23;;
25237;SDS011;13185;50.872;5.306;2024-03-25T13:19:50;5.15;;;1.08;;
25237;SDS011;13185;50.872;5.306;2024-03-25T13:22:15;3.28;;;1.02;;
25237;SDS011;13185;50.872;5.306;2024-03-25T13:24:41;4.82;;;1.40;;
25237;SDS011;13185;50.872;5.306;2024-03-25T13:27:06;3.28;;;1.00;;
25237;SDS011;13185;50.872;5.306;2024-03-25T13:29:32;4.82;;;1.40;;
25237;SDS011;13185;50.872;5.306;2024-03-25T13:31:57;8.77;;;1.35;;
25237;SDS011;13185;50.872;5.306;2024-03-25T13:34:23;3.90;;;1.27;;
25237;SDS011;13185;50.872;5.306;2024-03-25T13:36:49;2.53;;;0.82;;
25237;SDS011;13185;50.872;5.306;2024-03-25T13:39:14;3.53;;;1.30;;
25237;SDS011;13185;50.872;5.306;2024-03-25T13:41:40;3.38;;;1.00;;
25237;SDS011;13185;50.872;5.306;2024-03-25T13:44:05;2.58;;;1.13;;
25237;SDS011;13185;50.872;5.306;2024-03-25T13:46:31;5.97;;;1.17;;
25237;SDS011;13185;50.872;5.306;2024-03-25T13:48:56;3.20;;;1.10;;
25237;SDS011;13185;50.872;5.306;2024-03-25T13:51:22;2.95;;;1.17;;
25237;SDS011;13185;50.872;5.306;2024-03-25T13:53:47;3.47;;;1.45;;
25237;SDS011;13185;50.872;5.306;2024-03-25T13:56:13;2.67;;;1.10;;
25237;SDS011;13185;50.872;5.306;2024-03-25T13:58:38;4.13;;;1.15;;
25237;SDS011;13185;50.872;5.306;2024-03-25T14:01:04;3.45;;;1.52;;
25237;SDS011;13185;50.872;5.306;2024-03-25T14:03:30;1.88;;;1.15;;
25237;SDS011;13185;50.872;5.306;2024-03-25T14:05:56;2.50;;;1.40;;
25237;SDS011;13185;50.872;5.306;2024-03-25T14:08:21;3.08;;;1.20;;
25237;SDS011;13185;50.872;5.306;2024-03-25T14:10:56;3.22;;;1.00;;
25237;SDS011;13185;50.872;5.306;2024-03-25T14:13:25;3.22;;;1.02;;
25237;SDS011;13185;50.872;5.306;2024-03-25T14:15:51;2.15;;;1.17;;
25237;SDS011;13185;50.872;5.306;2024-03-25T14:18:17;2.45;;;1.27;;
25237;SDS011;13185;50.872;5.306;2024-03-25T14:20:42;3.10;;;1.17;;
25237;SDS011;13185;50.872;5.306;2024-03-25T14:23:08;2.08;;;0.98;;
25237;SDS011;13185;50.872;5.306;2024-03-25T14:25:37;4.35;;;1.10;;
25237;SDS011;13185;50.872;5.306;2024-03-25T14:28:03;3.63;;;0.85;;
25237;SDS011;13185;50.872;5.306;2024-03-25T14:30:29;5.32;;;0.90;;
25237;SDS011;13185;50.872;5.306;2024-03-25T14:32:54;4.53;;;1.15;;
25237;SDS011;13185;50.872;5.306;2024-03-25T14:35:20;2.47;;;0.98;;
25237;SDS011;13185;50.872;5.306;2024-03-25T14:37:46;3.08;;;1.00;;
25237;SDS011;13185;50.872;5.306;2024-03-25T14:40:13;2.60;;;1.10;;